createdAt,value
2016-10-03T00:00:13.449Z,99.99
2016-10-03T00:01:13.437Z,99.99
2016-10-03T00:02:13.418Z,99.99
2016-10-03T00:03:13.428Z,99.99
2016-10-03T00:04:13.394Z,99.99
2016-10-03T00:05:13.386Z,99.99
2016-10-03T00:06:13.369Z,99.99
2016-10-03T00:07:13.671Z,99.99
2016-10-03T00:08:13.346Z,99.99
2016-10-03T00:09:13.649Z,99.99
2016-10-03T00:10:13.319Z,99.99
2016-10-03T00:11:13.308Z,99.99
2016-10-03T00:12:13.296Z,99.99
2016-10-03T00:13:13.593Z,99.99
2016-10-03T00:14:13.271Z,99.99
2016-10-03T00:15:13.253Z,99.99
2016-10-03T00:16:13.242Z,99.99
2016-10-03T00:17:13.231Z,99.99
2016-10-03T00:18:13.219Z,99.99
2016-10-03T00:19:13.519Z,99.99
2016-10-03T00:20:13.197Z,99.99
2016-10-03T00:21:13.183Z,99.99
2016-10-03T00:22:13.165Z,99.99
2016-10-03T00:23:13.158Z,99.99
2016-10-03T00:24:13.146Z,99.99
2016-10-03T00:25:13.131Z,99.99
2016-10-03T00:26:13.116Z,99.99
2016-10-03T00:27:13.419Z,99.99
2016-10-03T00:28:13.413Z,99.99
2016-10-03T00:29:13.084Z,99.99
2016-10-03T00:30:13.067Z,99.99
2016-10-03T00:31:13.056Z,99.99
2016-10-03T00:32:13.043Z,99.99
2016-10-03T00:33:13.026Z,99.99
2016-10-03T00:34:13.018Z,99.99
2016-10-03T00:35:13.005Z,99.99
2016-10-03T00:36:12.994Z,99.99
2016-10-03T00:37:12.977Z,99.99
2016-10-03T00:38:12.965Z,99.99
2016-10-03T00:39:12.955Z,99.99
2016-10-03T00:40:13.254Z,99.99
2016-10-03T00:41:12.924Z,99.99
2016-10-03T00:42:12.915Z,99.99
2016-10-03T00:43:12.911Z,99.99
2016-10-03T00:44:12.887Z,99.99
2016-10-03T00:45:13.191Z,99.99
2016-10-03T00:46:12.863Z,99.99
2016-10-03T00:47:12.851Z,99.99
2016-10-03T00:48:12.836Z,99.99
2016-10-03T00:49:12.825Z,99.99
2016-10-03T00:50:12.815Z,99.99
2016-10-03T00:51:12.797Z,99.99
2016-10-03T00:52:12.787Z,99.99
2016-10-03T00:53:12.772Z,99.99
2016-10-03T00:54:12.774Z,99.99
2016-10-03T00:55:13.267Z,99.99
2016-10-03T00:56:12.735Z,99.99
2016-10-03T00:57:12.723Z,99.99
2016-10-03T00:58:12.711Z,99.99
2016-10-03T00:59:12.698Z,99.99
2016-10-03T01:00:12.687Z,99.99
2016-10-03T01:01:12.673Z,99.99
2016-10-03T01:02:12.661Z,99.99
2016-10-03T01:03:12.654Z,99.99
2016-10-03T01:04:12.628Z,99.99
2016-10-03T01:05:12.623Z,99.99
2016-10-03T01:06:12.608Z,99.99
2016-10-03T01:07:12.975Z,99.99
2016-10-03T01:08:12.585Z,99.99
2016-10-03T01:09:12.569Z,99.99
2016-10-03T01:10:12.559Z,99.99
2016-10-03T01:11:12.543Z,99.99
2016-10-03T01:12:12.531Z,99.99
2016-10-03T01:13:12.520Z,99.99
2016-10-03T01:14:12.510Z,99.99
2016-10-03T01:15:12.493Z,99.99
2016-10-03T01:16:12.479Z,99.99
2016-10-03T01:17:12.469Z,99.99
2016-10-03T01:18:12.456Z,99.99
2016-10-03T01:19:12.445Z,99.99
2016-10-03T01:20:12.431Z,99.99
2016-10-03T01:21:12.417Z,99.99
2016-10-03T01:22:12.406Z,99.99
2016-10-03T01:23:12.390Z,99.99
2016-10-03T01:24:12.395Z,99.99
2016-10-03T01:25:12.365Z,99.99
2016-10-03T01:26:12.354Z,99.99
2016-10-03T01:27:12.347Z,99.99
2016-10-03T01:28:12.330Z,99.99
2016-10-03T01:29:12.317Z,99.99
2016-10-03T01:30:12.307Z,99.99
2016-10-03T01:31:12.291Z,99.99
2016-10-03T01:32:12.279Z,99.99
2016-10-03T01:33:12.270Z,99.99
2016-10-03T01:34:12.259Z,99.99
2016-10-03T01:35:12.241Z,99.99
2016-10-03T01:36:12.229Z,99.99
2016-10-03T01:37:12.529Z,99.99
2016-10-03T01:38:12.202Z,99.99
2016-10-03T01:39:12.194Z,99.99
2016-10-03T01:40:12.178Z,99.99
2016-10-03T01:41:12.165Z,99.99
2016-10-03T01:42:12.152Z,99.99
2016-10-03T01:43:12.140Z,99.99
2016-10-03T01:44:12.440Z,99.99
2016-10-03T01:45:12.115Z,99.99
2016-10-03T01:46:12.106Z,99.99
2016-10-03T01:47:12.090Z,99.99
2016-10-03T01:48:12.078Z,99.99
2016-10-03T01:49:12.060Z,99.99
2016-10-03T01:50:12.051Z,99.99
2016-10-03T01:51:12.037Z,99.99
2016-10-03T01:52:12.027Z,99.99
2016-10-03T01:53:12.014Z,99.99
2016-10-03T01:54:12.002Z,99.99
2016-10-03T01:55:11.988Z,99.99
2016-10-03T01:56:11.972Z,99.99
2016-10-03T01:57:11.963Z,99.99
2016-10-03T01:58:11.949Z,99.99
2016-10-03T01:59:11.937Z,99.99
2016-10-03T02:00:11.926Z,99.99
2016-10-03T02:01:12.222Z,99.99
2016-10-03T02:02:11.900Z,99.99
2016-10-03T02:03:11.882Z,99.99
2016-10-03T02:04:11.872Z,99.99
2016-10-03T02:05:11.859Z,99.99
2016-10-03T02:06:11.847Z,99.99
2016-10-03T02:07:11.835Z,99.99
2016-10-03T02:08:11.818Z,99.99
2016-10-03T02:09:11.809Z,99.99
2016-10-03T02:10:11.796Z,99.99
2016-10-03T02:11:11.784Z,99.99
2016-10-03T02:12:11.768Z,99.99
2016-10-03T02:13:11.756Z,99.99
2016-10-03T02:14:11.777Z,99.99
2016-10-03T02:15:12.044Z,99.99
2016-10-03T02:16:11.715Z,99.99
2016-10-03T02:17:11.707Z,99.99
2016-10-03T02:18:11.694Z,99.99
2016-10-03T02:19:11.678Z,99.99
2016-10-03T02:20:11.667Z,99.99
2016-10-03T02:21:11.650Z,99.99
2016-10-03T02:22:11.640Z,99.99
2016-10-03T02:23:11.625Z,99.99
2016-10-03T02:24:11.612Z,99.99
2016-10-03T02:25:11.599Z,99.99
2016-10-03T02:26:11.897Z,99.99
2016-10-03T02:27:11.573Z,99.99
2016-10-03T02:28:11.594Z,99.99
2016-10-03T02:29:11.860Z,99.99
2016-10-03T02:30:11.533Z,99.99
2016-10-03T02:31:11.522Z,99.99
2016-10-03T02:32:11.508Z,99.99
2016-10-03T02:33:11.490Z,99.99
2016-10-03T02:34:11.482Z,99.99
2016-10-03T02:35:11.475Z,99.99
2016-10-03T02:36:11.459Z,99.99
2016-10-03T02:37:11.456Z,99.99
2016-10-03T02:38:11.428Z,99.99
2016-10-03T02:39:11.415Z,99.99
2016-10-03T02:40:11.403Z,99.99
2016-10-03T02:41:11.388Z,99.99
2016-10-03T02:42:11.394Z,99.99
2016-10-03T02:43:11.362Z,99.99
2016-10-03T02:44:11.348Z,99.99
2016-10-03T02:45:11.332Z,99.99
2016-10-03T02:46:11.637Z,99.99
2016-10-03T02:47:11.313Z,99.99
2016-10-03T02:48:11.295Z,99.99
2016-10-03T02:49:11.283Z,99.99
2016-10-03T02:50:11.266Z,99.99
2016-10-03T02:51:11.254Z,99.99
2016-10-03T02:52:11.239Z,99.99
2016-10-03T02:53:11.229Z,99.99
2016-10-03T02:54:11.216Z,99.99
2016-10-03T02:55:11.724Z,99.99
2016-10-03T02:56:11.190Z,99.99
2016-10-03T02:57:11.491Z,99.99
2016-10-03T02:58:11.162Z,99.99
2016-10-03T02:59:11.154Z,99.99
2016-10-03T03:00:11.453Z,99.99
2016-10-03T03:01:11.125Z,99.99
2016-10-03T03:02:11.108Z,99.99
2016-10-03T03:03:11.105Z,99.99
2016-10-03T03:04:11.398Z,99.99
2016-10-03T03:05:11.072Z,99.99
2016-10-03T03:06:11.055Z,99.99
2016-10-03T03:07:11.044Z,99.99
2016-10-03T03:08:11.343Z,99.99
2016-10-03T03:09:11.016Z,99.99
2016-10-03T03:10:11.005Z,99.99
2016-10-03T03:11:10.988Z,99.99
2016-10-03T03:12:10.978Z,99.99
2016-10-03T03:13:10.963Z,99.99
2016-10-03T03:14:10.947Z,99.99
2016-10-03T03:15:10.938Z,99.99
2016-10-03T03:16:10.923Z,99.99
2016-10-03T03:17:10.924Z,99.99
2016-10-03T03:18:10.896Z,99.99
2016-10-03T03:19:10.883Z,99.99
2016-10-03T03:20:10.877Z,99.99
2016-10-03T03:21:10.855Z,99.99
2016-10-03T03:22:10.843Z,99.99
2016-10-03T03:23:10.824Z,99.99
2016-10-03T03:24:10.813Z,99.99
2016-10-03T03:25:11.111Z,99.99
2016-10-03T03:26:10.792Z,99.99
2016-10-03T03:27:10.775Z,99.99
2016-10-03T03:28:10.761Z,99.99
2016-10-03T03:29:10.748Z,99.99
2016-10-03T03:30:10.734Z,99.99
2016-10-03T03:31:10.722Z,99.99
2016-10-03T03:32:10.705Z,99.99
2016-10-03T03:33:11.019Z,99.99
2016-10-03T03:34:10.679Z,99.99
2016-10-03T03:35:10.667Z,99.99
2016-10-03T03:36:10.661Z,99.99
2016-10-03T03:37:10.643Z,99.99
2016-10-03T03:38:10.627Z,99.99
2016-10-03T03:39:10.610Z,99.99
2016-10-03T03:40:10.920Z,99.99
2016-10-03T03:41:10.591Z,99.99
2016-10-03T03:42:10.577Z,99.99
2016-10-03T03:43:10.874Z,99.99
2016-10-03T03:44:10.551Z,99.99
2016-10-03T03:45:10.533Z,99.99
2016-10-03T03:46:10.520Z,99.99
2016-10-03T03:47:10.506Z,99.99
2016-10-03T03:48:10.499Z,99.99
2016-10-03T03:49:10.478Z,99.99
2016-10-03T03:50:10.791Z,99.99
2016-10-03T03:51:10.775Z,99.99
2016-10-03T03:52:10.436Z,99.99
2016-10-03T03:53:10.425Z,99.99
2016-10-03T03:54:10.414Z,99.99
2016-10-03T03:55:10.399Z,99.99
2016-10-03T03:56:10.387Z,99.99
2016-10-03T03:57:10.370Z,99.99
2016-10-03T03:58:10.361Z,99.99
2016-10-03T03:59:10.342Z,99.99
2016-10-03T04:00:10.332Z,99.99
2016-10-03T04:01:10.323Z,99.99
2016-10-03T04:02:10.306Z,99.99
2016-10-03T04:03:10.294Z,99.99
2016-10-03T04:04:10.278Z,99.99
2016-10-03T04:05:10.267Z,99.99
2016-10-03T04:06:10.252Z,99.99
2016-10-03T04:07:10.236Z,99.99
2016-10-03T04:08:10.233Z,99.99
2016-10-03T04:09:10.212Z,99.99
2016-10-03T04:10:10.202Z,99.99
2016-10-03T04:11:10.185Z,99.99
2016-10-03T04:12:10.177Z,99.99
2016-10-03T04:13:10.169Z,99.99
2016-10-03T04:14:10.148Z,99.99
2016-10-03T04:15:10.133Z,99.99
2016-10-03T04:16:10.119Z,99.99
2016-10-03T04:17:10.107Z,99.99
2016-10-03T04:18:10.091Z,99.99
2016-10-03T04:19:10.080Z,99.99
2016-10-03T04:20:10.068Z,99.99
2016-10-03T04:21:10.370Z,99.99
2016-10-03T04:22:10.036Z,99.99
2016-10-03T04:23:10.035Z,99.99
2016-10-03T04:24:10.327Z,99.99
2016-10-03T04:25:10.013Z,99.99
2016-10-03T04:26:09.987Z,99.99
2016-10-03T04:27:09.973Z,99.99
2016-10-03T04:28:09.966Z,99.99
2016-10-03T04:29:09.944Z,99.99
2016-10-03T04:30:09.935Z,99.99
2016-10-03T04:31:09.928Z,99.99
2016-10-03T04:32:09.909Z,99.99
2016-10-03T04:33:09.894Z,99.99
2016-10-03T04:34:09.890Z,99.99
2016-10-03T04:35:09.868Z,99.99
2016-10-03T04:36:09.857Z,99.99
2016-10-03T04:37:09.844Z,99.99
2016-10-03T04:38:09.836Z,99.99
2016-10-03T04:39:09.832Z,99.99
2016-10-03T04:40:09.800Z,99.99
2016-10-03T04:41:09.795Z,99.99
2016-10-03T04:42:09.776Z,99.99
2016-10-03T04:43:09.766Z,99.99
2016-10-03T04:44:09.753Z,99.99
2016-10-03T04:45:09.739Z,99.99
2016-10-03T04:46:09.727Z,99.99
2016-10-03T04:47:09.714Z,99.99
2016-10-03T04:48:09.700Z,99.99
2016-10-03T04:49:09.686Z,99.99
2016-10-03T04:50:09.681Z,99.99
2016-10-03T04:51:09.657Z,99.99
2016-10-03T04:52:09.647Z,99.99
2016-10-03T04:53:09.633Z,99.99
2016-10-03T04:54:09.633Z,99.99
2016-10-03T04:55:09.812Z,99.99
2016-10-03T04:56:09.598Z,99.99
2016-10-03T04:57:09.586Z,99.99
2016-10-03T04:58:09.572Z,99.99
2016-10-03T04:59:09.874Z,99.99
2016-10-03T05:00:09.855Z,99.99
2016-10-03T05:01:09.847Z,99.99
2016-10-03T05:02:09.520Z,99.99
2016-10-03T05:03:09.507Z,99.99
2016-10-03T05:04:09.495Z,99.99
2016-10-03T05:05:09.480Z,99.99
2016-10-03T05:06:09.466Z,99.99
2016-10-03T05:07:09.456Z,99.99
2016-10-03T05:08:09.442Z,99.99
2016-10-03T05:09:09.423Z,99.99
2016-10-03T05:10:09.422Z,99.99
2016-10-03T05:11:09.729Z,99.99
2016-10-03T05:12:09.393Z,99.99
2016-10-03T05:13:09.377Z,99.99
2016-10-03T05:14:09.363Z,99.99
2016-10-03T05:15:09.351Z,99.99
2016-10-03T05:16:09.341Z,99.99
2016-10-03T05:17:09.639Z,99.99
2016-10-03T05:18:09.317Z,99.99
2016-10-03T05:19:09.614Z,99.99
2016-10-03T05:20:09.284Z,99.99
2016-10-03T05:21:09.275Z,99.99
2016-10-03T05:22:09.582Z,99.99
2016-10-03T05:23:09.248Z,99.99
2016-10-03T05:24:09.235Z,99.99
2016-10-03T05:25:09.220Z,99.99
2016-10-03T05:26:09.211Z,99.99
2016-10-03T05:27:09.199Z,99.99
2016-10-03T05:28:09.182Z,99.99
2016-10-03T05:29:09.170Z,99.99
2016-10-03T05:30:09.160Z,99.99
2016-10-03T05:31:09.146Z,99.99
2016-10-03T05:32:09.132Z,99.99
2016-10-03T05:33:09.127Z,99.99
2016-10-03T05:34:09.106Z,99.99
2016-10-03T05:35:09.092Z,99.99
2016-10-03T05:36:09.077Z,99.99
2016-10-03T05:37:09.066Z,99.99
2016-10-03T05:38:09.054Z,99.99
2016-10-03T05:39:09.353Z,99.99
2016-10-03T05:40:09.028Z,99.99
2016-10-03T05:41:09.015Z,99.99
2016-10-03T05:42:09.004Z,99.99
2016-10-03T05:43:08.988Z,99.99
2016-10-03T05:44:08.979Z,99.99
2016-10-03T05:45:08.960Z,99.99
2016-10-03T05:46:08.953Z,99.99
2016-10-03T05:47:09.254Z,99.99
2016-10-03T05:48:08.926Z,99.99
2016-10-03T05:49:08.910Z,99.99
2016-10-03T05:50:09.213Z,99.99
2016-10-03T05:51:08.886Z,99.99
2016-10-03T05:52:08.874Z,99.99
2016-10-03T05:53:08.861Z,99.99
2016-10-03T05:54:08.848Z,99.99
2016-10-03T05:55:08.834Z,99.99
2016-10-03T05:56:08.822Z,99.99
2016-10-03T05:57:08.808Z,99.99
2016-10-03T05:58:08.794Z,99.99
2016-10-03T05:59:08.783Z,99.99
2016-10-03T06:00:09.080Z,99.99
2016-10-03T06:01:08.756Z,99.99
2016-10-03T06:02:08.744Z,99.99
2016-10-03T06:03:08.729Z,99.99
2016-10-03T06:04:09.030Z,99.99
2016-10-03T06:05:08.702Z,99.99
2016-10-03T06:06:08.694Z,99.99
2016-10-03T06:07:08.682Z,99.99
2016-10-03T06:08:08.977Z,99.99
2016-10-03T06:09:08.654Z,99.99
2016-10-03T06:10:08.639Z,99.99
2016-10-03T06:11:08.627Z,99.99
2016-10-03T06:12:08.613Z,99.99
2016-10-03T06:13:08.602Z,99.99
2016-10-03T06:14:08.902Z,99.99
2016-10-03T06:15:08.576Z,99.99
2016-10-03T06:16:08.560Z,99.99
2016-10-03T06:17:08.548Z,99.99
2016-10-03T06:18:08.539Z,99.99
2016-10-03T06:19:08.841Z,99.99
2016-10-03T06:20:08.511Z,99.99
2016-10-03T06:21:08.808Z,99.99
2016-10-03T06:22:08.799Z,99.99
2016-10-03T06:23:08.471Z,99.99
2016-10-03T06:24:08.460Z,99.99
2016-10-03T06:25:08.448Z,99.99
2016-10-03T06:26:08.436Z,99.99
2016-10-03T06:27:08.422Z,99.99
2016-10-03T06:28:08.408Z,99.99
2016-10-03T06:29:08.400Z,99.99
2016-10-03T06:30:08.380Z,99.99
2016-10-03T06:31:08.370Z,99.99
2016-10-03T06:32:08.358Z,99.99
2016-10-03T06:33:08.344Z,99.99
2016-10-03T06:34:08.337Z,99.99
2016-10-03T06:35:08.322Z,99.99
2016-10-03T06:36:08.309Z,99.99
2016-10-03T06:37:08.607Z,99.99
2016-10-03T06:38:08.298Z,99.99
2016-10-03T06:39:08.274Z,99.99
2016-10-03T06:40:08.575Z,99.99
2016-10-03T06:41:08.253Z,99.99
2016-10-03T06:42:08.232Z,99.99
2016-10-03T06:43:08.216Z,99.99
2016-10-03T06:44:08.209Z,99.99
2016-10-03T06:45:08.197Z,99.99
2016-10-03T06:46:08.182Z,99.99
2016-10-03T06:47:08.175Z,99.99
2016-10-03T06:48:08.157Z,99.99
2016-10-03T06:49:08.142Z,99.99
2016-10-03T06:50:08.145Z,99.99
2016-10-03T06:51:08.133Z,99.99
2016-10-03T06:52:08.106Z,99.99
2016-10-03T06:53:08.094Z,99.99
2016-10-03T06:54:08.082Z,99.99
2016-10-03T06:55:08.269Z,99.99
2016-10-03T06:56:08.056Z,99.99
2016-10-03T06:57:08.040Z,99.99
2016-10-03T06:58:08.087Z,99.99
2016-10-03T06:59:08.337Z,99.99
2016-10-03T07:00:08.005Z,99.99
2016-10-03T07:01:08.305Z,99.99
2016-10-03T07:02:07.988Z,99.99
2016-10-03T07:03:07.966Z,99.99
2016-10-03T07:04:07.950Z,99.99
2016-10-03T07:05:07.940Z,99.99
2016-10-03T07:06:07.928Z,99.99
2016-10-03T07:07:07.913Z,99.99
2016-10-03T07:08:07.900Z,99.99
2016-10-03T07:09:08.208Z,99.99
2016-10-03T07:10:07.876Z,99.99
2016-10-03T07:11:07.865Z,99.99
2016-10-03T07:12:07.852Z,99.99
2016-10-03T07:13:07.839Z,99.99
2016-10-03T07:14:07.826Z,99.99
2016-10-03T07:15:07.811Z,99.99
2016-10-03T07:16:08.116Z,99.99
2016-10-03T07:17:07.788Z,99.99
2016-10-03T07:18:07.780Z,99.99
2016-10-03T07:19:08.084Z,99.99
2016-10-03T07:20:07.755Z,99.99
2016-10-03T07:21:07.738Z,99.99
2016-10-03T07:22:07.728Z,99.99
2016-10-03T07:23:08.035Z,99.99
2016-10-03T07:24:07.700Z,99.99
2016-10-03T07:25:07.692Z,99.99
2016-10-03T07:26:07.676Z,99.99
2016-10-03T07:27:07.673Z,99.99
2016-10-03T07:28:07.651Z,99.99
2016-10-03T07:29:07.640Z,99.99
2016-10-03T07:30:07.630Z,99.99
2016-10-03T07:31:07.616Z,99.99
2016-10-03T07:32:07.918Z,99.99
2016-10-03T07:33:07.594Z,99.99
2016-10-03T07:34:07.586Z,99.99
2016-10-03T07:35:07.568Z,99.99
2016-10-03T07:36:07.564Z,99.99
2016-10-03T07:37:07.543Z,99.99
2016-10-03T07:38:07.533Z,99.99
2016-10-03T07:39:07.830Z,99.99
2016-10-03T07:40:07.512Z,99.99
2016-10-03T07:41:07.496Z,99.99
2016-10-03T07:42:07.820Z,99.99
2016-10-03T07:43:07.476Z,99.99
2016-10-03T07:44:07.461Z,99.99
2016-10-03T07:45:07.447Z,99.99
2016-10-03T07:46:07.432Z,99.99
2016-10-03T07:47:07.737Z,99.99
2016-10-03T07:48:07.723Z,99.99
2016-10-03T07:49:07.399Z,99.99
2016-10-03T07:50:07.384Z,99.99
2016-10-03T07:51:07.375Z,99.99
2016-10-03T07:52:07.362Z,99.99
2016-10-03T07:53:07.352Z,99.99
2016-10-03T07:54:07.342Z,99.99
2016-10-03T07:55:07.331Z,99.99
2016-10-03T07:56:07.316Z,99.99
2016-10-03T07:57:07.303Z,99.99
2016-10-03T07:58:07.293Z,99.99
2016-10-03T07:59:07.283Z,99.99
2016-10-03T08:00:07.276Z,99.99
2016-10-03T08:01:07.262Z,99.99
2016-10-03T08:02:07.247Z,99.99
2016-10-03T08:03:07.233Z,99.99
2016-10-03T08:04:07.221Z,99.99
2016-10-03T08:05:07.211Z,99.99
2016-10-03T08:06:07.196Z,99.99
2016-10-03T08:07:07.190Z,99.99
2016-10-03T08:08:07.491Z,99.99
2016-10-03T08:09:07.166Z,99.99
2016-10-03T08:10:07.156Z,99.99
2016-10-03T08:11:07.145Z,99.99
2016-10-03T08:12:07.135Z,99.99
2016-10-03T08:13:07.119Z,99.99
2016-10-03T08:14:07.111Z,99.99
2016-10-03T08:15:07.112Z,99.99
2016-10-03T08:16:07.087Z,99.99
2016-10-03T08:17:07.081Z,99.99
2016-10-03T08:18:07.063Z,99.99
2016-10-03T08:19:07.047Z,99.99
2016-10-03T08:20:07.036Z,99.99
2016-10-03T08:21:07.027Z,99.99
2016-10-03T08:22:07.013Z,99.99
2016-10-03T08:23:07.004Z,99.99
2016-10-03T08:24:06.991Z,99.99
2016-10-03T08:25:07.295Z,99.99
2016-10-03T08:26:07.285Z,99.99
2016-10-03T08:27:06.959Z,99.99
2016-10-03T08:28:06.952Z,99.99
2016-10-03T08:29:06.937Z,99.99
2016-10-03T08:30:06.925Z,99.99
2016-10-03T08:31:06.916Z,99.99
2016-10-03T08:32:06.904Z,99.99
2016-10-03T08:33:06.897Z,99.99
2016-10-03T08:34:06.880Z,99.99
2016-10-03T08:35:06.874Z,99.99
2016-10-03T08:36:06.860Z,99.99
2016-10-03T08:37:06.850Z,99.99
2016-10-03T08:38:06.843Z,99.99
2016-10-03T08:39:06.831Z,99.99
2016-10-03T08:40:06.822Z,99.99
2016-10-03T08:41:06.809Z,99.99
2016-10-03T08:42:06.799Z,99.99
2016-10-03T08:43:06.795Z,99.99
2016-10-03T08:44:06.782Z,99.99
2016-10-03T08:45:06.769Z,99.99
2016-10-03T08:46:06.760Z,99.99
2016-10-03T08:47:06.748Z,99.99
2016-10-03T08:48:06.743Z,99.99
2016-10-03T08:49:06.728Z,99.99
2016-10-03T08:50:06.714Z,99.99
2016-10-03T08:51:06.712Z,99.99
2016-10-03T08:52:06.698Z,99.99
2016-10-03T08:53:06.701Z,99.99
2016-10-03T08:54:06.679Z,99.99
2016-10-03T08:55:06.930Z,99.99
2016-10-03T08:56:06.657Z,99.99
2016-10-03T08:57:06.655Z,99.99
2016-10-03T08:58:06.643Z,99.99
2016-10-03T08:59:06.632Z,99.99
2016-10-03T09:00:06.616Z,99.99
2016-10-03T09:01:06.618Z,99.99
2016-10-03T09:02:06.595Z,99.99
2016-10-03T09:03:06.586Z,99.99
2016-10-03T09:04:06.574Z,99.99
2016-10-03T09:05:06.569Z,99.99
2016-10-03T09:06:06.559Z,99.99
2016-10-03T09:07:06.549Z,99.99
2016-10-03T09:08:06.543Z,99.99
2016-10-03T09:09:06.529Z,99.99
2016-10-03T09:10:06.522Z,99.99
2016-10-03T09:11:06.511Z,99.99
2016-10-03T09:12:06.499Z,99.99
2016-10-03T09:13:06.493Z,99.99
2016-10-03T09:14:06.482Z,99.99
2016-10-03T09:15:06.484Z,99.99
2016-10-03T09:16:06.477Z,99.99
2016-10-03T09:17:06.458Z,99.99
2016-10-03T09:18:06.439Z,99.99
2016-10-03T09:19:06.433Z,99.99
2016-10-03T09:20:06.427Z,99.99
2016-10-03T09:21:06.412Z,99.99
2016-10-03T09:22:06.716Z,99.99
2016-10-03T09:23:06.708Z,99.99
2016-10-03T09:24:06.384Z,99.99
2016-10-03T09:25:06.688Z,99.99
2016-10-03T09:26:06.365Z,99.99
2016-10-03T09:27:06.357Z,99.99
2016-10-03T09:28:06.346Z,99.99
2016-10-03T09:29:06.335Z,99.99
2016-10-03T09:30:06.326Z,99.99
2016-10-03T09:31:06.314Z,99.99
2016-10-03T09:32:06.619Z,99.99
2016-10-03T09:33:06.301Z,99.99
2016-10-03T09:34:06.284Z,99.99
2016-10-03T09:35:06.278Z,99.99
2016-10-03T09:36:06.267Z,99.99
2016-10-03T09:37:06.254Z,99.99
2016-10-03T09:38:06.244Z,99.99
2016-10-03T09:39:06.552Z,99.99
2016-10-03T09:40:06.539Z,99.99
2016-10-03T09:41:06.218Z,99.99
2016-10-03T09:42:06.519Z,99.99
2016-10-03T09:43:06.194Z,99.99
2016-10-03T09:44:06.182Z,99.99
2016-10-03T09:45:06.181Z,99.99
2016-10-03T09:46:06.182Z,99.99
2016-10-03T09:47:06.156Z,99.99
2016-10-03T09:48:06.459Z,99.99
2016-10-03T09:49:06.450Z,99.99
2016-10-03T09:50:06.124Z,99.99
2016-10-03T09:51:06.113Z,99.99
2016-10-03T09:52:06.102Z,99.99
2016-10-03T09:53:06.096Z,99.99
2016-10-03T09:54:06.084Z,99.99
2016-10-03T09:55:06.076Z,99.99
2016-10-03T09:56:06.066Z,99.99
2016-10-03T09:57:06.371Z,99.99
2016-10-03T09:58:06.053Z,99.99
2016-10-03T09:59:06.036Z,99.99
2016-10-03T10:00:06.030Z,99.99
2016-10-03T10:01:06.020Z,99.99
2016-10-03T10:02:06.013Z,99.99
2016-10-03T10:03:06.007Z,99.99
2016-10-03T10:04:05.996Z,99.99
2016-10-03T10:05:06.306Z,99.99
2016-10-03T10:06:06.293Z,99.99
2016-10-03T10:07:05.970Z,99.99
2016-10-03T10:08:05.956Z,99.99
2016-10-03T10:09:06.153Z,99.99
2016-10-03T10:10:06.255Z,99.99
2016-10-03T10:11:05.928Z,99.99
2016-10-03T10:12:06.241Z,99.99
2016-10-03T10:13:05.910Z,99.99
2016-10-03T10:14:05.903Z,99.99
2016-10-03T10:15:05.895Z,99.99
2016-10-03T10:16:05.886Z,99.99
2016-10-03T10:17:05.882Z,99.99
2016-10-03T10:18:05.868Z,99.99
2016-10-03T10:19:06.174Z,99.99
2016-10-03T10:20:05.849Z,99.99
2016-10-03T10:21:05.842Z,99.99
2016-10-03T10:22:05.831Z,99.99
2016-10-03T10:23:05.827Z,99.99
2016-10-03T10:24:06.131Z,99.99
2016-10-03T10:25:05.809Z,99.99
2016-10-03T10:26:05.801Z,99.99
2016-10-03T10:27:05.791Z,99.99
2016-10-03T10:28:05.785Z,99.99
2016-10-03T10:29:05.774Z,99.99
2016-10-03T10:30:05.768Z,99.99
2016-10-03T10:31:05.757Z,99.99
2016-10-03T10:32:05.751Z,99.99
2016-10-03T10:33:06.056Z,99.99
2016-10-03T10:34:06.097Z,99.99
2016-10-03T10:35:05.725Z,99.99
2016-10-03T10:36:05.713Z,99.99
2016-10-03T10:37:05.707Z,99.99
2016-10-03T10:38:05.698Z,99.99
2016-10-03T10:39:05.685Z,99.99
2016-10-03T10:40:05.677Z,99.99
2016-10-03T10:41:05.673Z,99.99
2016-10-03T10:42:05.971Z,99.99
2016-10-03T10:43:05.652Z,99.99
2016-10-03T10:44:05.642Z,99.99
2016-10-03T10:45:05.639Z,99.99
2016-10-03T10:46:05.947Z,99.99
2016-10-03T10:47:05.620Z,99.99
2016-10-03T10:48:05.611Z,99.99
2016-10-03T10:49:05.603Z,99.29
2016-10-03T10:50:05.914Z,98.38
2016-10-03T10:51:05.591Z,99.99
2016-10-03T10:52:05.898Z,99.99
2016-10-03T10:53:05.570Z,99.43
2016-10-03T10:54:05.562Z,99.99
2016-10-03T10:55:05.753Z,99.99
2016-10-03T10:56:05.549Z,96.13
2016-10-03T10:57:05.849Z,94.5
2016-10-03T10:58:05.525Z,97.95
2016-10-03T10:59:05.847Z,98.33
2016-10-03T11:00:05.509Z,96.13
2016-10-03T11:01:05.502Z,95.65
2016-10-03T11:02:05.810Z,95.75
2016-10-03T11:03:05.494Z,96.75
2016-10-03T11:04:05.475Z,96.56
2016-10-03T11:05:05.799Z,99.19
2016-10-03T11:06:05.458Z,99.99
2016-10-03T11:07:05.472Z,99.87
2016-10-03T11:08:05.445Z,96.51
2016-10-03T11:09:05.436Z,98.05
2016-10-03T11:10:05.742Z,98.19
2016-10-03T11:11:05.422Z,95.03
2016-10-03T11:12:05.413Z,95.84
2016-10-03T11:13:05.408Z,95.07
2016-10-03T11:14:05.396Z,94.21
2016-10-03T11:15:05.392Z,94.93
2016-10-03T11:16:05.382Z,95.7
2016-10-03T11:17:05.375Z,98.47
2016-10-03T11:18:05.364Z,97.61
2016-10-03T11:19:05.358Z,98.47
2016-10-03T11:20:05.349Z,98.76
2016-10-03T11:21:05.341Z,98.76
2016-10-03T11:22:05.331Z,95.94
2016-10-03T11:23:05.322Z,93.26
2016-10-03T11:24:05.315Z,90.86
2016-10-03T11:25:05.307Z,94.02
2016-10-03T11:26:05.300Z,93.63
2016-10-03T11:27:05.602Z,94.59
2016-10-03T11:28:05.286Z,94.35
2016-10-03T11:29:05.274Z,95.17
2016-10-03T11:30:05.587Z,95.07
2016-10-03T11:31:05.264Z,94.4
2016-10-03T11:32:05.252Z,95.94
2016-10-03T11:33:05.247Z,95.75
2016-10-03T11:34:05.237Z,96.89
2016-10-03T11:35:05.235Z,98.05
2016-10-03T11:36:05.220Z,97.09
2016-10-03T11:37:05.216Z,98.43
2016-10-03T11:38:05.206Z,99.96
2016-10-03T11:39:05.202Z,99.19
2016-10-03T11:40:05.516Z,98.19
2016-10-03T11:41:05.506Z,93.21
2016-10-03T11:42:05.178Z,88.7
2016-10-03T11:43:05.173Z,92.68
2016-10-03T11:44:05.171Z,95.36
2016-10-03T11:45:05.164Z,87.58
2016-10-03T11:46:05.475Z,86.18
2016-10-03T11:47:05.150Z,88.2
2016-10-03T11:48:05.145Z,86.14
2016-10-03T11:49:05.454Z,84.31
2016-10-03T11:50:05.139Z,83.54
2016-10-03T11:51:05.135Z,84.7
2016-10-03T11:52:05.126Z,83.98
2016-10-03T11:53:05.120Z,83.93
2016-10-03T11:54:05.115Z,81.24
2016-10-03T11:55:05.110Z,85.51
2016-10-03T11:56:05.109Z,81.53
2016-10-03T11:57:05.108Z,80.19
2016-10-03T11:58:05.095Z,83.16
2016-10-03T11:59:05.091Z,83.11
2016-10-03T12:00:05.088Z,86.61
2016-10-03T12:01:05.081Z,83.09
2016-10-03T12:02:05.081Z,77.04
2016-10-03T12:03:05.091Z,78.86
2016-10-03T12:04:05.075Z,81.56
2016-10-03T12:05:05.069Z,76.07
2016-10-03T12:06:05.065Z,76.61
2016-10-03T12:07:05.062Z,78.25
2016-10-03T12:08:05.054Z,74.94
2016-10-03T12:09:05.048Z,76.96
2016-10-03T12:10:05.049Z,78.21
2016-10-03T12:11:05.353Z,77.25
2016-10-03T12:12:05.032Z,78.78
2016-10-03T12:13:05.345Z,77.44
2016-10-03T12:14:05.034Z,74.75
2016-10-03T12:15:05.024Z,74.27
2016-10-03T12:16:05.021Z,76.48
2016-10-03T12:17:05.328Z,76.09
2016-10-03T12:18:05.011Z,74.02
2016-10-03T12:19:05.003Z,77.09
2016-10-03T12:20:05.003Z,74.11
2016-10-03T12:21:05.311Z,76.04
2016-10-03T12:22:05.315Z,74.79
2016-10-03T12:23:04.986Z,74.79
2016-10-03T12:24:04.987Z,72.77
2016-10-03T12:25:05.029Z,72.09
2016-10-03T12:26:04.979Z,74.3
2016-10-03T12:27:04.971Z,75.07
2016-10-03T12:28:04.971Z,77
2016-10-03T12:29:04.961Z,74.3
2016-10-03T12:30:04.955Z,71.71
2016-10-03T12:31:05.266Z,71.94
2016-10-03T12:32:04.953Z,69.28
2016-10-03T12:33:04.942Z,70.92
2016-10-03T12:34:04.941Z,70.43
2016-10-03T12:35:04.934Z,67.83
2016-10-03T12:36:05.261Z,72.42
2016-10-03T12:37:04.928Z,72.86
2016-10-03T12:38:04.923Z,71.14
2016-10-03T12:39:04.917Z,69.63
2016-10-03T12:40:04.915Z,70.78
2016-10-03T12:41:04.907Z,70.88
2016-10-03T12:42:04.905Z,71.17
2016-10-03T12:43:04.900Z,69.67
2016-10-03T12:44:04.897Z,68.8
2016-10-03T12:45:05.209Z,69.67
2016-10-03T12:46:04.890Z,68.9
2016-10-03T12:47:04.884Z,68.22
2016-10-03T12:48:04.882Z,67.87
2016-10-03T12:49:05.189Z,66.36
2016-10-03T12:50:04.922Z,66.01
2016-10-03T12:51:04.868Z,65.72
2016-10-03T12:52:04.884Z,65.24
2016-10-03T12:53:04.860Z,64.86